Impacts TAF Board
For situational awareness. Not to be used for flight planning purposes.
IDs:

KCVG - Cincinnati Intl, KY, US

Issued at 2329 UTC 19 Mar 2019
Updated at 0316 UTC 20 Mar 2019
Potential Impact None Slight Moderate High
Time0252Z 20/04Z 20/05Z 20/06Z 20/07Z 20/08Z 20/09Z 20/10Z 20/11Z 20/12Z 20/13Z 20/14Z 20/15Z 20/16Z>>
Type OBS PRVL PRVL PRVL PRVL PRVL PRVL PRVL PRVL PRVL PRVL PRVL PRVL PRVL
VIS 10 >6 >6 >6 >6 >6 >6 >6 >6 >6 >6 >6 >6 >6
CIG 250 250 250 250 250 150 150 150 150 150 150 150 100 100
Cover OVC BKN BKN BKN BKN BKN BKN BKN BKN BKN BKN BKN BKN BKN
FltCat VFR VFR VFR VFR VFR VFR VFR VFR VFR VFR VFR VFR VFR VFR
WX -- -- -- -- -- -- -- -- -- -- -- -- -- --
WDir 320 VRB VRB VRB VRB 150 150 150 150 150 150 150 180 180
WSpd 3 0 0 0 0 4 4 4 4 4 4 4 8 8
WGst -- -- -- -- -- -- -- -- -- -- -- -- -- --
Raw TAF
KCVG 192329Z 2000/2106 00000KT P6SM BKN250
  FM200800 15004KT P6SM SCT100 BKN150
  FM201500 18008KT P6SM BKN100
  FM201800 20012G18KT P6SM VCSH BKN080
  FM210000 23008KT P6SM VCSH OVC050
  FM210200 23008KT 6SM -SHRA OVC040
  FM210500 24008KT 4SM -SHRA OVC022


Raw METAR
KCVG 200252Z 32003KT 10SM BKN250 OVC300 04/M05 A3032 RMK AO2 SLP272 T00441050 58003
KCVG 200152Z 35003KT 10SM BKN240 OVC300 06/M06 A3033 RMK AO2 SLP273 T00611056
KCVG 200052Z 33006KT 10SM SCT250 OVC300 07/M06 A3033 RMK AO2 SLP275 T00721061

METAR Board
Radar Display
Forecast Discussion
For situational awareness. Not to be used for flight planning purposes.